Time;durP1;ratioP1;P1;durP2;ratioP2;P2;SDS_P1;SDS_P2;PMS_P1;PMS_P2;Temp;Humidity;BMP_temperature;BMP_pressure;BME280_temperature;BME280_humidity;BME280_pressure;Samples;Min_cycle;Max_cycle;Signal;HPM_P1;HPM_P2
2024/03/17 00:01:44;;;;;;;13.50;7.22;;;5.00;99.90;;;;;;4993177;28;20145;-84
2024/03/17 00:04:10;;;;;;;13.90;7.25;;;5.10;99.90;;;;;;4980489;28;20038;-84
2024/03/17 00:06:35;;;;;;;19.05;7.35;;;5.10;99.90;;;;;;4977074;28;20045;-84
2024/03/17 00:09:06;;;;;;;14.13;7.97;;;5.10;99.90;;;;;;4976221;28;20065;-84
2024/03/17 00:11:35;;;;;;;18.98;7.78;;;5.10;99.90;;;;;;4975883;28;20019;-84
2024/03/17 00:14:01;;;;;;;13.90;7.80;;;5.10;99.90;;;;;;4975500;28;20053;-84
2024/03/17 00:16:27;;;;;;;13.10;7.25;;;5.10;99.90;;;;;;4980217;28;20037;-84
2024/03/17 00:18:53;;;;;;;24.65;7.68;;;5.10;99.90;;;;;;4979880;28;20034;-84
2024/03/17 00:21:19;;;;;;;15.40;8.10;;;5.10;99.90;;;;;;4968919;28;20482;-84
2024/03/17 00:23:49;;;;;;;12.75;7.40;;;5.10;99.90;;;;;;4960306;28;20077;-84
2024/03/17 00:26:15;;;;;;;19.65;9.40;;;5.10;99.90;;;;;;4971683;28;20025;-84
2024/03/17 00:28:41;;;;;;;17.98;8.75;;;5.10;99.90;;;;;;4993421;28;20039;-84
2024/03/17 00:31:09;;;;;;;13.07;8.00;;;5.10;99.90;;;;;;4979246;28;20114;-83
2024/03/17 00:33:35;;;;;;;18.33;7.88;;;5.10;99.90;;;;;;4974021;28;20391;-84
2024/03/17 00:36:01;;;;;;;20.25;9.18;;;5.10;99.90;;;;;;4973230;28;20026;-84
2024/03/17 00:38:26;;;;;;;17.83;8.55;;;5.10;99.90;;;;;;4967824;28;20121;-83
2024/03/17 00:40:52;;;;;;;17.17;8.38;;;5.10;99.90;;;;;;4985788;28;20034;-84
2024/03/17 00:43:17;;;;;;;21.30;10.75;;;5.20;99.90;;;;;;4975749;28;20052;-83
2024/03/17 00:45:43;;;;;;;13.68;8.02;;;5.20;99.90;;;;;;4972131;28;20046;-84
2024/03/17 00:48:09;;;;;;;16.15;8.13;;;5.20;99.90;;;;;;4976924;28;20407;-84
2024/03/17 00:50:35;;;;;;;15.15;8.55;;;5.20;99.90;;;;;;4990550;28;20026;-83
2024/03/17 00:53:03;;;;;;;15.45;8.52;;;5.20;99.90;;;;;;4972048;28;20026;-84
2024/03/17 00:55:28;;;;;;;21.40;8.35;;;5.10;99.90;;;;;;4987140;28;20029;-84
2024/03/17 00:57:54;;;;;;;20.25;8.68;;;5.10;99.90;;;;;;4975105;28;20023;-84
2024/03/17 01:00:20;;;;;;;17.35;8.23;;;5.10;99.90;;;;;;4977884;28;20050;-83
2024/03/17 01:02:46;;;;;;;21.75;8.52;;;5.10;99.90;;;;;;4978757;28;20037;-83
2024/03/17 01:05:11;;;;;;;16.63;8.52;;;5.10;99.90;;;;;;4968039;28;20128;-83
2024/03/17 01:07:37;;;;;;;17.83;9.40;;;5.10;99.90;;;;;;4979240;28;20041;-84
2024/03/17 01:10:03;;;;;;;20.00;7.78;;;5.00;99.90;;;;;;4989209;28;20034;-84
2024/03/17 01:12:32;;;;;;;14.65;8.95;;;5.00;99.90;;;;;;4976878;28;20633;-84
2024/03/17 01:14:57;;;;;;;14.18;8.48;;;5.00;99.90;;;;;;4961036;28;20054;-83
2024/03/17 01:17:23;;;;;;;17.10;9.15;;;5.00;99.90;;;;;;4979093;28;20066;-83
2024/03/17 01:19:49;;;;;;;16.67;9.05;;;4.90;99.90;;;;;;4983971;28;20095;-83
2024/03/17 01:22:14;;;;;;;17.80;9.13;;;4.90;99.90;;;;;;4977291;28;20030;-83
2024/03/17 01:24:45;;;;;;;18.83;10.75;;;4.90;99.90;;;;;;4991134;28;20101;-83
2024/03/17 01:27:14;;;;;;;18.67;10.05;;;4.90;99.90;;;;;;4974945;28;20500;-83
2024/03/17 01:29:40;;;;;;;14.30;9.30;;;4.90;99.90;;;;;;4994741;28;20034;-84
2024/03/17 01:32:05;;;;;;;16.90;9.27;;;5.00;99.90;;;;;;4974668;28;20129;-83
2024/03/17 01:34:31;;;;;;;20.75;9.68;;;5.00;99.90;;;;;;4978762;28;20030;-83
2024/03/17 01:36:57;;;;;;;17.02;10.13;;;5.00;99.90;;;;;;4995871;28;20088;-83
2024/03/17 01:39:22;;;;;;;18.27;9.50;;;4.90;99.90;;;;;;4973499;28;20065;-83
2024/03/17 01:41:48;;;;;;;13.60;8.02;;;5.00;99.90;;;;;;4978392;28;20031;-83
2024/03/17 01:44:27;;;;;;;15.43;8.70;;;4.90;99.90;;;;;;4978214;28;20066;-83
2024/03/17 01:46:55;;;;;;;18.85;9.02;;;4.90;99.90;;;;;;4971398;28;20030;-83
2024/03/17 01:49:22;;;;;;;17.27;8.43;;;5.00;99.90;;;;;;4976023;28;20053;-84
2024/03/17 01:51:48;;;;;;;16.23;7.85;;;4.90;99.90;;;;;;4977392;28;20072;-84
2024/03/17 01:54:15;;;;;;;13.90;7.97;;;4.90;99.90;;;;;;4977411;28;20046;-83
2024/03/17 01:56:41;;;;;;;15.05;8.60;;;4.90;99.90;;;;;;4974885;28;20027;-83
2024/03/17 01:59:09;;;;;;;16.83;7.70;;;4.90;99.90;;;;;;4958841;28;20047;-84
2024/03/17 02:01:36;;;;;;;16.85;8.27;;;4.90;99.90;;;;;;4982976;28;20117;-84
2024/03/17 02:04:02;;;;;;;14.05;8.32;;;4.80;99.90;;;;;;4975390;28;20018;-83
2024/03/17 02:06:28;;;;;;;14.25;7.70;;;4.80;99.90;;;;;;4977220;28;20034;-84
2024/03/17 02:08:54;;;;;;;18.55;8.23;;;4.80;99.90;;;;;;4977509;28;20057;-84
2024/03/17 02:11:31;;;;;;;18.95;9.23;;;4.90;99.90;;;;;;4970432;28;20485;-83
2024/03/17 02:13:57;;;;;;;17.40;8.18;;;4.80;99.90;;;;;;4967159;28;20120;-83
2024/03/17 02:16:23;;;;;;;15.25;8.50;;;4.90;99.90;;;;;;4966481;28;20029;-83
2024/03/17 02:18:54;;;;;;;14.95;8.07;;;4.90;99.90;;;;;;4958853;28;20027;-83
2024/03/17 02:21:22;;;;;;;14.23;9.20;;;4.90;99.90;;;;;;4994156;28;20023;-83
2024/03/17 02:23:48;;;;;;;14.95;8.15;;;4.90;99.90;;;;;;4977550;28;20398;-83
2024/03/17 02:26:13;;;;;;;13.65;9.15;;;4.90;99.90;;;;;;4977902;28;20026;-83
2024/03/17 02:28:44;;;;;;;13.27;7.57;;;5.00;99.90;;;;;;4977798;28;20066;-83
2024/03/17 02:31:11;;;;;;;13.88;8.93;;;5.00;99.90;;;;;;4976016;28;20014;-84
2024/03/17 02:33:38;;;;;;;16.73;8.55;;;5.00;99.90;;;;;;4977589;28;20030;-83
2024/03/17 02:36:07;;;;;;;18.08;9.73;;;5.00;99.90;;;;;;4971708;28;20438;-84
2024/03/17 02:41:18;;;;;;;14.60;8.63;;;5.10;99.90;;;;;;4992463;28;20142;-83
2024/03/17 02:43:45;;;;;;;13.52;8.38;;;5.10;99.90;;;;;;4974018;28;20088;-84
2024/03/17 02:46:15;;;;;;;16.08;8.40;;;5.20;99.90;;;;;;4975268;28;20026;-84
2024/03/17 02:48:44;;;;;;;17.88;8.73;;;5.30;99.90;;;;;;4972645;28;20057;-83
2024/03/17 02:51:12;;;;;;;19.27;10.32;;;5.30;99.90;;;;;;4977114;28;20019;-83
2024/03/17 02:53:39;;;;;;;16.40;9.98;;;5.30;99.90;;;;;;4976594;28;20030;-83
2024/03/17 02:56:06;;;;;;;12.38;8.65;;;5.40;99.90;;;;;;4977211;28;20025;-83
2024/03/17 02:58:33;;;;;;;14.07;8.82;;;5.40;99.90;;;;;;4972395;28;20062;-84
2024/03/17 03:00:59;;;;;;;18.90;9.52;;;5.50;99.90;;;;;;4970122;28;20566;-84
2024/03/17 03:03:24;;;;;;;16.27;10.07;;;5.50;99.90;;;;;;4970956;28;20113;-83
2024/03/17 03:05:50;;;;;;;16.60;8.88;;;5.60;99.90;;;;;;4975970;28;20467;-83
2024/03/17 03:08:16;;;;;;;16.20;9.05;;;5.70;99.90;;;;;;4970319;28;20045;-84
2024/03/17 03:10:45;;;;;;;14.38;9.10;;;5.70;99.90;;;;;;4975910;28;20455;-83
2024/03/17 03:13:11;;;;;;;16.25;9.27;;;5.70;99.90;;;;;;4974905;28;20570;-83
2024/03/17 03:15:36;;;;;;;19.02;9.82;;;5.70;99.90;;;;;;4973345;28;20117;-83
2024/03/17 03:18:02;;;;;;;13.25;9.13;;;5.80;99.90;;;;;;4976395;28;20019;-83
2024/03/17 03:20:28;;;;;;;17.85;9.20;;;5.80;99.90;;;;;;4960476;28;20022;-83
2024/03/17 03:22:54;;;;;;;15.38;9.30;;;5.90;99.90;;;;;;4970551;28;20037;-84
2024/03/17 03:25:19;;;;;;;13.60;9.30;;;5.90;99.90;;;;;;4975912;28;20514;-83
2024/03/17 03:27:45;;;;;;;17.63;9.98;;;5.90;99.90;;;;;;4971960;28;20077;-83
2024/03/17 03:30:11;;;;;;;19.52;10.35;;;5.90;99.90;;;;;;4989337;28;20026;-83
2024/03/17 03:32:38;;;;;;;17.17;9.75;;;6.00;99.90;;;;;;4966589;28;20038;-83
2024/03/17 03:35:04;;;;;;;18.25;9.98;;;6.00;99.90;;;;;;4987250;28;20019;-83
2024/03/17 03:37:31;;;;;;;16.48;10.07;;;6.00;99.90;;;;;;4976235;28;20399;-83
2024/03/17 03:39:58;;;;;;;18.77;10.85;;;6.00;99.90;;;;;;4975514;28;20427;-83
2024/03/17 03:42:24;;;;;;;14.23;9.75;;;6.00;99.90;;;;;;4976276;28;20058;-83
2024/03/17 03:44:50;;;;;;;14.98;10.38;;;6.00;99.90;;;;;;4966178;28;20130;-83
2024/03/17 03:47:15;;;;;;;39.03;19.33;;;6.00;99.90;;;;;;4974993;28;20034;-83
2024/03/17 03:49:41;;;;;;;36.05;18.15;;;6.10;99.90;;;;;;4975532;28;20113;-83
2024/03/17 03:52:06;;;;;;;23.00;13.57;;;6.10;99.90;;;;;;4992976;28;20022;-83
2024/03/17 03:54:33;;;;;;;21.17;12.85;;;6.10;99.90;;;;;;4979211;28;20110;-83
2024/03/17 03:56:58;;;;;;;19.38;11.57;;;6.10;99.90;;;;;;4961102;28;20029;-84
2024/03/17 03:59:24;;;;;;;20.55;11.63;;;6.10;99.90;;;;;;4975785;28;20045;-83
2024/03/17 04:01:50;;;;;;;17.33;10.40;;;6.10;99.90;;;;;;4973778;28;20026;-83
2024/03/17 04:04:16;;;;;;;17.88;9.82;;;6.10;99.90;;;;;;4973326;28;20518;-83
2024/03/17 04:06:42;;;;;;;18.55;11.18;;;6.10;99.90;;;;;;4967263;28;20567;-83
2024/03/17 04:09:09;;;;;;;19.63;11.38;;;6.10;99.90;;;;;;4968406;28;20034;-83
2024/03/17 04:11:34;;;;;;;20.20;11.25;;;6.10;99.90;;;;;;4970678;28;20073;-83
2024/03/17 04:14:00;;;;;;;20.60;12.00;;;6.10;99.90;;;;;;4964540;28;20102;-83
2024/03/17 04:16:26;;;;;;;17.00;11.10;;;6.10;99.90;;;;;;4965232;28;20057;-83
2024/03/17 04:18:52;;;;;;;19.27;11.75;;;6.10;99.90;;;;;;4974903;28;20050;-83
2024/03/17 04:21:18;;;;;;;23.80;11.02;;;6.10;99.90;;;;;;4974501;28;20121;-83
2024/03/17 04:23:43;;;;;;;18.58;11.63;;;6.10;99.90;;;;;;4972800;28;20022;-83
2024/03/17 04:26:09;;;;;;;20.08;11.82;;;6.10;99.90;;;;;;4971604;28;20394;-83
2024/03/17 04:28:35;;;;;;;18.60;11.82;;;6.10;99.90;;;;;;4970551;28;20038;-83
2024/03/17 04:31:08;;;;;;;16.25;11.27;;;6.10;99.90;;;;;;4964986;28;20375;-84
2024/03/17 04:33:34;;;;;;;17.83;11.25;;;6.10;99.90;;;;;;4978432;28;20065;-84
2024/03/17 04:36:02;;;;;;;19.90;12.05;;;6.00;99.90;;;;;;4974298;28;20037;-84
2024/03/17 04:38:27;;;;;;;21.42;11.85;;;6.00;99.90;;;;;;4956598;28;20073;-83
2024/03/17 04:41:04;;;;;;;21.17;11.75;;;6.00;99.90;;;;;;4975075;28;20435;-84
2024/03/17 04:43:32;;;;;;;17.20;10.90;;;5.90;99.90;;;;;;4985399;28;20383;-84
2024/03/17 04:46:04;;;;;;;22.85;12.75;;;5.90;99.90;;;;;;4957852;28;20038;-83
2024/03/17 04:48:30;;;;;;;16.00;10.80;;;5.90;99.90;;;;;;4961154;28;20445;-83
2024/03/17 04:50:55;;;;;;;19.40;12.10;;;5.90;99.90;;;;;;4974476;28;20199;-84
2024/03/17 04:53:21;;;;;;;16.55;11.55;;;5.80;99.90;;;;;;4975052;28;20063;-84
2024/03/17 04:55:46;;;;;;;18.63;11.48;;;5.80;99.90;;;;;;4977742;28;20023;-83
2024/03/17 04:58:12;;;;;;;17.35;10.60;;;5.80;99.90;;;;;;4974726;28;20041;-84
2024/03/17 05:00:37;;;;;;;19.10;12.15;;;5.80;99.90;;;;;;4971426;28;20423;-84
2024/03/17 05:03:03;;;;;;;19.13;11.90;;;5.80;99.90;;;;;;4971889;28;20031;-84
2024/03/17 05:05:29;;;;;;;18.08;10.70;;;5.80;99.90;;;;;;4973328;28;20084;-82
2024/03/17 05:07:55;;;;;;;20.95;11.75;;;5.80;99.90;;;;;;4970084;28;20034;-84
2024/03/17 05:10:20;;;;;;;18.50;11.30;;;5.80;99.90;;;;;;4960308;28;20046;-83
2024/03/17 05:12:47;;;;;;;18.30;12.63;;;5.80;99.90;;;;;;4969517;28;20488;-83
2024/03/17 05:15:13;;;;;;;20.00;11.50;;;5.80;99.90;;;;;;4973324;28;20027;-83
2024/03/17 05:17:39;;;;;;;24.05;13.00;;;5.80;99.90;;;;;;4973345;28;20057;-83
2024/03/17 05:20:06;;;;;;;21.88;12.65;;;5.80;99.90;;;;;;4972001;28;20117;-84
2024/03/17 05:22:31;;;;;;;20.50;12.10;;;5.80;99.90;;;;;;4972345;28;20023;-83
2024/03/17 05:24:57;;;;;;;22.45;13.52;;;5.80;99.90;;;;;;4989570;28;20034;-84
2024/03/17 05:27:22;;;;;;;19.20;11.88;;;5.80;99.90;;;;;;4964332;28;20034;-83
2024/03/17 05:29:50;;;;;;;21.00;12.43;;;5.80;99.90;;;;;;4971432;28;20499;-84
2024/03/17 05:32:16;;;;;;;19.23;12.52;;;5.80;99.90;;;;;;4969343;28;20501;-84
2024/03/17 05:34:41;;;;;;;19.50;12.55;;;5.80;99.90;;;;;;4965810;28;20054;-84
2024/03/17 05:37:07;;;;;;;21.15;12.80;;;5.80;99.90;;;;;;4968669;28;20030;-83
2024/03/17 05:39:32;;;;;;;21.30;12.95;;;5.80;99.90;;;;;;4975368;28;20487;-83
2024/03/17 05:41:58;;;;;;;20.10;11.88;;;5.80;99.90;;;;;;4966402;28;20015;-84
2024/03/17 05:44:23;;;;;;;21.45;12.43;;;5.80;99.90;;;;;;4967924;28;20527;-84
2024/03/17 05:46:52;;;;;;;24.60;12.50;;;5.80;99.90;;;;;;4956009;28;20046;-84
2024/03/17 05:49:18;;;;;;;18.25;12.15;;;5.90;99.90;;;;;;4966967;28;20031;-83
2024/03/17 05:51:43;;;;;;;19.38;11.48;;;5.90;99.90;;;;;;4974513;28;20035;-84
2024/03/17 05:54:09;;;;;;;18.88;11.48;;;5.90;99.90;;;;;;4973047;28;20113;-84
2024/03/17 05:56:34;;;;;;;17.92;12.52;;;6.00;99.90;;;;;;4973637;28;20078;-84
2024/03/17 05:59:01;;;;;;;19.30;12.15;;;5.90;99.90;;;;;;4983094;28;20051;-84
2024/03/17 06:01:26;;;;;;;20.23;12.25;;;6.00;99.90;;;;;;4975587;28;20050;-84
2024/03/17 06:03:52;;;;;;;25.73;12.75;;;6.00;99.90;;;;;;4975015;28;20447;-83
2024/03/17 06:06:18;;;;;;;18.80;11.02;;;6.00;99.90;;;;;;4973057;28;20034;-84
2024/03/17 06:08:43;;;;;;;16.15;10.88;;;6.10;99.90;;;;;;4967355;28;20061;-84
2024/03/17 06:11:10;;;;;;;19.13;12.43;;;6.00;99.90;;;;;;4969759;28;20027;-84
2024/03/17 06:13:36;;;;;;;21.17;12.77;;;6.00;99.90;;;;;;4974476;28;20026;-85
2024/03/17 06:16:03;;;;;;;19.27;11.93;;;6.00;99.90;;;;;;4967944;28;20053;-85
2024/03/17 06:18:28;;;;;;;20.45;12.88;;;6.00;99.90;;;;;;4967214;28;20031;-85
2024/03/17 06:20:58;;;;;;;23.52;13.45;;;6.00;99.90;;;;;;4972910;28;20364;-85
2024/03/17 06:23:23;;;;;;;18.65;11.55;;;6.00;99.90;;;;;;4971746;28;20039;-84
2024/03/17 06:25:50;;;;;;;16.83;11.90;;;6.10;99.90;;;;;;4969428;28;20038;-84
2024/03/17 06:28:17;;;;;;;21.05;12.95;;;6.10;99.90;;;;;;4973947;28;20039;-85
2024/03/17 06:30:44;;;;;;;20.90;12.50;;;6.10;99.90;;;;;;4969986;28;20034;-84
2024/03/17 06:33:12;;;;;;;15.82;11.57;;;6.10;99.90;;;;;;4973836;28;20117;-85
2024/03/17 06:35:38;;;;;;;16.38;11.77;;;6.10;99.90;;;;;;4993050;28;20054;-84
2024/03/17 06:38:04;;;;;;;21.20;12.80;;;6.20;99.90;;;;;;4968238;28;20050;-84
2024/03/17 06:40:30;;;;;;;21.80;12.43;;;6.20;99.90;;;;;;4972002;28;20376;-84
2024/03/17 06:42:56;;;;;;;19.13;11.43;;;6.20;99.90;;;;;;4973722;28;20054;-83
2024/03/17 06:45:22;;;;;;;17.38;11.48;;;6.20;99.90;;;;;;4973884;28;20034;-84
2024/03/17 06:47:48;;;;;;;17.30;11.32;;;6.20;99.90;;;;;;4973997;28;20035;-84
2024/03/17 06:50:14;;;;;;;22.15;12.35;;;6.30;99.90;;;;;;4966378;28;20034;-84
2024/03/17 06:52:40;;;;;;;18.15;12.30;;;6.30;99.90;;;;;;4969359;28;20038;-84
2024/03/17 06:55:09;;;;;;;17.92;12.18;;;6.30;99.90;;;;;;4982404;28;20023;-84
2024/03/17 06:57:35;;;;;;;18.88;10.80;;;6.30;99.90;;;;;;4967654;28;20031;-84
2024/03/17 07:00:01;;;;;;;18.52;11.48;;;6.40;99.90;;;;;;4966309;28;20065;-84
2024/03/17 07:02:27;;;;;;;18.50;10.98;;;6.40;99.90;;;;;;4964841;28;20031;-84
2024/03/17 07:04:52;;;;;;;20.17;12.35;;;6.50;99.90;;;;;;4973385;28;20037;-84
2024/03/17 07:07:18;;;;;;;19.25;11.75;;;6.60;99.90;;;;;;4989373;28;20062;-84
2024/03/17 07:09:43;;;;;;;21.52;12.77;;;6.70;99.90;;;;;;4970450;28;20038;-84
2024/03/17 07:12:10;;;;;;;17.13;11.35;;;6.80;99.90;;;;;;4964041;28;20015;-84
2024/03/17 07:14:37;;;;;;;19.08;11.38;;;6.90;99.90;;;;;;4969604;28;20178;-84
2024/03/17 07:17:03;;;;;;;18.33;11.23;;;7.00;99.90;;;;;;4966897;28;20023;-84
2024/03/17 07:19:28;;;;;;;16.48;10.32;;;7.10;99.90;;;;;;4968528;28;20390;-84
2024/03/17 07:21:54;;;;;;;16.20;11.07;;;7.10;99.90;;;;;;4967292;28;20034;-84
2024/03/17 07:24:20;;;;;;;17.73;10.85;;;7.20;99.90;;;;;;4971971;28;20042;-84
2024/03/17 07:26:49;;;;;;;18.83;11.23;;;7.30;99.90;;;;;;4971266;28;20144;-84
2024/03/17 07:29:14;;;;;;;16.98;11.00;;;7.30;99.90;;;;;;4972149;28;20062;-84
2024/03/17 07:31:40;;;;;;;19.98;11.20;;;7.40;99.90;;;;;;4971756;28;20556;-84
2024/03/17 07:34:06;;;;;;;18.77;10.88;;;7.60;99.90;;;;;;4956228;28;20027;-84
2024/03/17 07:36:31;;;;;;;18.08;10.35;;;7.70;99.90;;;;;;4969509;28;20702;-84
2024/03/17 07:38:57;;;;;;;17.25;10.95;;;7.90;99.90;;;;;;4968707;28;20023;-84
2024/03/17 07:41:24;;;;;;;17.17;9.82;;;8.00;99.90;;;;;;4964067;28;20030;-83
2024/03/17 07:43:49;;;;;;;15.02;9.70;;;8.10;99.90;;;;;;4972586;28;20125;-84
2024/03/17 07:46:15;;;;;;;14.95;10.00;;;8.10;99.90;;;;;;4957998;28;20078;-84
2024/03/17 07:48:42;;;;;;;17.10;10.27;;;8.10;99.90;;;;;;4971483;28;20459;-84
2024/03/17 07:51:11;;;;;;;18.00;10.63;;;8.20;99.90;;;;;;4974682;28;20092;-84
2024/03/17 07:53:38;;;;;;;15.65;9.55;;;8.20;99.90;;;;;;4966559;28;20516;-85
2024/03/17 07:56:11;;;;;;;16.73;10.48;;;8.20;99.90;;;;;;4972837;28;20034;-85
2024/03/17 07:58:39;;;;;;;16.67;10.10;;;8.20;99.90;;;;;;4963312;28;20027;-84
2024/03/17 08:01:12;;;;;;;14.60;9.80;;;8.20;99.90;;;;;;4971172;28;20034;-85
2024/03/17 08:03:39;;;;;;;16.70;10.25;;;8.30;99.90;;;;;;4975657;28;20078;-85
2024/03/17 08:06:06;;;;;;;15.18;10.70;;;8.30;99.90;;;;;;4976171;28;20026;-85
2024/03/17 08:08:33;;;;;;;16.98;9.82;;;8.50;99.90;;;;;;4976602;28;20041;-84
2024/03/17 08:10:59;;;;;;;15.15;9.10;;;8.60;99.90;;;;;;4972714;28;20049;-84
2024/03/17 08:13:25;;;;;;;20.85;10.20;;;8.80;99.90;;;;;;4983495;28;20042;-84
2024/03/17 08:15:59;;;;;;;13.82;9.45;;;9.00;99.90;;;;;;4968926;28;20076;-84
2024/03/17 08:18:26;;;;;;;19.35;10.32;;;9.10;99.90;;;;;;4970874;28;20030;-86
2024/03/17 08:20:56;;;;;;;15.65;9.40;;;9.20;99.90;;;;;;4993369;28;20023;-84
2024/03/17 08:23:24;;;;;;;16.35;8.55;;;9.30;99.90;;;;;;4975377;28;20026;-84
2024/03/17 08:25:58;;;;;;;13.20;8.85;;;9.40;99.90;;;;;;4975793;28;20418;-83
2024/03/17 08:28:25;;;;;;;16.73;10.07;;;9.40;99.90;;;;;;4968045;28;20113;-83
2024/03/17 08:30:54;;;;;;;13.00;8.80;;;9.50;99.90;;;;;;4971962;28;20027;-83
2024/03/17 08:33:22;;;;;;;18.90;9.25;;;9.50;99.90;;;;;;4973904;28;20031;-83
2024/03/17 08:35:57;;;;;;;15.63;8.73;;;9.50;99.90;;;;;;4973752;28;20026;-83
2024/03/17 08:38:24;;;;;;;11.05;8.00;;;9.60;99.90;;;;;;4972971;28;20042;-83
2024/03/17 08:40:51;;;;;;;11.30;8.30;;;9.60;99.90;;;;;;4972765;28;20031;-83
2024/03/17 08:43:16;;;;;;;12.93;7.28;;;9.70;99.90;;;;;;4975231;28;20376;-83
2024/03/17 08:45:43;;;;;;;11.50;7.70;;;9.70;99.90;;;;;;4973486;28;20049;-83
2024/03/17 08:48:10;;;;;;;13.63;8.23;;;9.70;99.90;;;;;;4972254;28;20042;-83
2024/03/17 08:50:36;;;;;;;15.55;7.88;;;9.70;99.90;;;;;;4985278;28;20026;-83
2024/03/17 08:53:02;;;;;;;10.25;6.80;;;9.80;99.90;;;;;;4971930;28;20058;-83
2024/03/17 08:55:27;;;;;;;10.93;7.70;;;9.80;99.90;;;;;;4973546;28;20123;-83
2024/03/17 08:57:53;;;;;;;13.23;7.00;;;9.90;99.90;;;;;;4966233;28;20042;-82
2024/03/17 09:00:19;;;;;;;13.48;7.43;;;9.90;99.90;;;;;;4971235;28;20466;-83
2024/03/17 09:02:44;;;;;;;12.27;6.55;;;10.00;99.90;;;;;;4962515;28;20046;-83
2024/03/17 09:05:12;;;;;;;13.55;7.68;;;10.00;99.90;;;;;;4974130;28;20033;-82
2024/03/17 09:07:38;;;;;;;11.68;7.65;;;10.10;99.90;;;;;;4976512;28;20026;-83
2024/03/17 09:10:04;;;;;;;13.23;7.47;;;10.10;99.90;;;;;;4974351;28;20034;-83
2024/03/17 09:12:33;;;;;;;10.23;6.78;;;10.20;99.90;;;;;;4978715;28;20053;-82
2024/03/17 09:14:58;;;;;;;10.88;6.88;;;10.30;99.90;;;;;;4978527;28;20023;-82
2024/03/17 09:17:24;;;;;;;12.13;7.03;;;10.40;99.90;;;;;;4978936;28;20487;-82
2024/03/17 09:19:50;;;;;;;10.15;6.75;;;10.50;99.90;;;;;;4978408;28;20026;-81
2024/03/17 09:22:15;;;;;;;14.13;6.88;;;10.50;99.90;;;;;;4979523;28;20018;-82
2024/03/17 09:24:41;;;;;;;9.90;6.63;;;10.60;99.90;;;;;;4978698;28;20399;-82
2024/03/17 09:27:07;;;;;;;9.82;7.15;;;10.70;99.90;;;;;;4974697;28;20023;-82
2024/03/17 09:29:35;;;;;;;15.30;8.23;;;10.70;99.90;;;;;;4972248;28;20033;-82
2024/03/17 09:32:01;;;;;;;9.77;7.10;;;10.80;99.90;;;;;;4978255;28;20372;-82
2024/03/17 09:34:26;;;;;;;9.90;6.38;;;10.90;99.90;;;;;;4980189;28;20141;-82
2024/03/17 09:36:52;;;;;;;9.27;6.25;;;11.00;99.90;;;;;;4974122;28;20387;-82
2024/03/17 09:39:19;;;;;;;10.32;7.40;;;11.10;99.90;;;;;;4973383;28;20035;-82
2024/03/17 09:41:46;;;;;;;10.10;6.50;;;11.30;99.90;;;;;;4977443;28;20031;-82
2024/03/17 09:44:13;;;;;;;10.43;6.50;;;11.40;99.90;;;;;;4970501;28;20033;-82
2024/03/17 09:46:39;;;;;;;9.68;6.88;;;11.50;99.90;;;;;;4983786;28;20116;-83
2024/03/17 09:49:09;;;;;;;10.13;6.68;;;11.50;99.90;;;;;;4994019;28;20129;-82
2024/03/17 09:51:38;;;;;;;11.27;7.25;;;11.50;99.90;;;;;;4959718;28;20023;-89
2024/03/17 09:54:21;;;;;;;11.38;7.15;;;11.50;99.90;;;;;;4998346;28;20026;-89
2024/03/17 09:56:46;;;;;;;13.85;7.15;;;11.50;99.90;;;;;;4978640;28;20026;-89
2024/03/17 09:59:12;;;;;;;8.30;6.57;;;11.60;99.90;;;;;;4975207;28;20039;-89
2024/03/17 10:01:38;;;;;;;10.15;6.13;;;11.50;99.90;;;;;;4978640;28;20038;-88
2024/03/17 10:04:04;;;;;;;10.80;6.47;;;11.50;99.90;;;;;;4978834;28;20046;-88
2024/03/17 10:06:30;;;;;;;11.57;6.45;;;11.60;99.90;;;;;;4971332;28;20027;-89
2024/03/17 10:08:58;;;;;;;10.25;6.50;;;11.60;99.90;;;;;;4979389;28;20039;-89
2024/03/17 10:11:25;;;;;;;11.90;7.55;;;11.60;99.90;;;;;;4982042;28;20022;-89
2024/03/17 10:14:05;;;;;;;10.88;7.20;;;11.70;99.90;;;;;;4977490;28;20030;-88
2024/03/17 10:16:33;;;;;;;12.55;6.65;;;11.90;99.90;;;;;;4972314;28;20503;-89
2024/03/17 10:19:10;;;;;;;10.32;6.60;;;12.00;99.90;;;;;;4995478;28;20029;-88
2024/03/17 10:21:37;;;;;;;12.65;6.63;;;12.20;99.90;;;;;;4977297;28;20026;-89
2024/03/17 10:24:10;;;;;;;10.57;6.97;;;12.20;99.90;;;;;;4970883;28;20065;-90
2024/03/17 10:26:53;;;;;;;10.82;6.57;;;12.30;99.90;;;;;;4978180;28;20030;-89
2024/03/17 10:29:31;;;;;;;;;;;12.30;99.90;;;;;;4977750;28;20116;-89
2024/03/17 10:31:59;;;;;;;11.45;6.13;;;12.30;99.90;;;;;;4966925;28;19910;-90
2024/03/17 10:34:26;;;;;;;13.27;6.88;;;12.40;99.90;;;;;;4971212;28;20073;-89
2024/03/17 10:37:10;;;;;;;10.65;7.47;;;12.30;99.90;;;;;;4974514;28;20045;-90
2024/03/17 10:39:37;;;;;;;10.77;7.00;;;12.40;99.90;;;;;;4967571;28;20022;-89
2024/03/17 10:42:04;;;;;;;13.02;6.53;;;12.40;99.90;;;;;;4965255;28;20319;-89
2024/03/17 10:44:31;;;;;;;10.77;6.85;;;12.50;99.90;;;;;;4966067;28;20682;-90
2024/03/17 10:47:00;;;;;;;8.35;6.47;;;12.50;99.90;;;;;;4969655;28;20113;-90
2024/03/17 10:49:31;;;;;;;9.20;6.63;;;12.50;99.90;;;;;;4976330;28;20154;-90
2024/03/17 10:52:04;;;;;;;11.68;7.57;;;12.60;99.90;;;;;;4977328;28;20549;-91
2024/03/17 10:54:30;;;;;;;9.32;7.03;;;12.70;99.90;;;;;;4975456;28;20424;-89
2024/03/17 10:57:03;;;;;;;7.78;6.32;;;12.80;99.90;;;;;;4971776;28;20026;-90
2024/03/17 10:59:41;;;;;;;8.93;6.68;;;12.90;99.90;;;;;;4977975;28;20388;-90
2024/03/17 11:02:28;;;;;;;7.20;5.97;;;12.90;99.90;;;;;;4966150;28;20483;-91
2024/03/17 11:05:00;;;;;;;13.95;6.93;;;12.90;99.90;;;;;;4975880;28;20034;-91
2024/03/17 11:07:26;;;;;;;;;;;12.90;99.90;;;;;;4977806;28;20442;-90
2024/03/17 11:09:55;;;;;;;10.60;5.68;;;13.00;99.90;;;;;;4976942;28;20520;-90
2024/03/17 11:12:39;;;;;;;9.48;6.22;;;13.00;99.90;;;;;;4969468;28;20050;-90
2024/03/17 11:15:38;;;;;;;10.65;6.32;;;13.00;99.90;;;;;;4967037;28;20015;-90
2024/03/17 11:18:09;;;;;;;12.45;6.40;;;13.10;99.90;;;;;;4970847;28;20027;-90
2024/03/17 11:20:37;;;;;;;10.77;6.30;;;13.30;99.90;;;;;;4958956;28;20862;-90
2024/03/17 11:23:03;;;;;;;9.23;6.70;;;13.30;99.90;;;;;;4971801;28;20128;-90
2024/03/17 11:25:33;;;;;;;10.40;6.45;;;13.40;99.90;;;;;;4977396;28;20511;-90
2024/03/17 11:28:00;;;;;;;9.02;6.03;;;13.40;99.90;;;;;;4975788;28;20038;-91
2024/03/17 11:30:57;;;;;;;8.25;5.78;;;13.40;99.90;;;;;;4968085;28;20018;-91
2024/03/17 11:33:38;;;;;;;8.35;5.50;;;13.40;99.90;;;;;;4943638;28;20113;-91
2024/03/17 11:36:27;;;;;;;9.68;5.85;;;13.50;99.90;;;;;;4976873;28;20076;-90
2024/03/17 11:39:23;;;;;;;10.57;5.45;;;13.50;99.90;;;;;;4976878;28;20030;-90
2024/03/17 11:41:51;;;;;;;8.30;5.40;;;13.50;99.90;;;;;;4973757;28;20026;-83
2024/03/17 11:44:24;;;;;;;12.25;5.95;;;13.40;99.90;;;;;;4975905;28;20116;-83
2024/03/17 11:47:06;;;;;;;10.20;5.22;;;13.40;99.90;;;;;;4975736;28;20037;-84
2024/03/17 11:49:39;;;;;;;8.98;5.22;;;13.30;99.90;;;;;;4976078;28;20513;-83
2024/03/17 11:52:15;;;;;;;11.18;6.35;;;13.30;99.90;;;;;;4964911;28;20085;-83
2024/03/17 11:54:46;;;;;;;6.75;5.55;;;13.30;99.90;;;;;;4975756;28;20057;-83
2024/03/17 11:57:13;;;;;;;10.93;5.50;;;13.40;99.90;;;;;;4975804;28;20069;-83
2024/03/17 11:59:40;;;;;;;6.68;5.13;;;13.30;99.90;;;;;;4968076;28;20042;-84
2024/03/17 12:02:21;;;;;;;8.32;5.57;;;13.30;99.90;;;;;;4974851;28;20395;-83
2024/03/17 12:04:48;;;;;;;7.95;5.70;;;13.30;99.90;;;;;;4975706;28;20079;-83
2024/03/17 12:07:16;;;;;;;9.25;6.05;;;13.30;99.90;;;;;;4975733;28;20125;-83
2024/03/17 12:09:45;;;;;;;11.63;5.85;;;13.30;99.90;;;;;;4976786;28;20034;-83
2024/03/17 12:12:22;;;;;;;9.45;5.93;;;13.30;99.90;;;;;;4959588;28;20066;-84
2024/03/17 12:14:50;;;;;;;8.93;5.88;;;13.30;99.90;;;;;;4975616;28;20034;-83
2024/03/17 12:17:23;;;;;;;8.85;6.13;;;13.30;99.90;;;;;;4974284;28;20233;-83
2024/03/17 12:19:50;;;;;;;10.27;6.30;;;13.40;99.90;;;;;;4993018;28;20057;-84
2024/03/17 12:22:24;;;;;;;7.70;5.47;;;13.40;99.90;;;;;;4975717;28;20022;-83
2024/03/17 12:24:51;;;;;;;12.68;6.25;;;13.40;99.90;;;;;;4975825;28;20076;-83
2024/03/17 12:27:24;;;;;;;10.52;6.15;;;13.50;99.90;;;;;;4972063;28;20027;-83
2024/03/17 12:29:51;;;;;;;9.98;6.28;;;13.50;99.90;;;;;;4975467;28;20026;-83
2024/03/17 12:32:21;;;;;;;9.95;6.45;;;13.50;99.90;;;;;;4973821;28;20026;-83
2024/03/17 12:34:52;;;;;;;8.48;6.22;;;13.60;99.90;;;;;;4975648;28;20073;-83
2024/03/17 12:37:22;;;;;;;10.68;5.70;;;13.60;99.90;;;;;;4977848;28;20022;-83
2024/03/17 12:39:48;;;;;;;10.13;5.60;;;13.60;99.90;;;;;;4979077;28;20033;-84
2024/03/17 12:42:16;;;;;;;7.80;5.97;;;13.60;99.90;;;;;;4977482;28;20059;-91
2024/03/17 12:45:01;;;;;;;9.65;5.47;;;13.60;99.90;;;;;;4969653;28;20494;-84
2024/03/17 12:47:28;;;;;;;9.95;6.40;;;13.60;99.90;;;;;;4966596;28;20086;-84
2024/03/17 12:49:58;;;;;;;10.20;6.07;;;13.50;99.90;;;;;;4975301;28;20027;-84